Time;durP1;ratioP1;P1;durP2;ratioP2;P2;SDS_P1;SDS_P2;PMS_P1;PMS_P2;Temp;Humidity;BMP_temperature;BMP_pressure;BME280_temperature;BME280_humidity;BME280_pressure;Samples;Min_cycle;Max_cycle;Signal;HPM_P1;HPM_P2
2023/12/29 00:06:19;;;;;;;;;;;9.90;99.90;;;;;;6786166;87;20036;-85
2023/12/29 00:16:19;;;;;;;;;;;10.10;99.90;;;;;;6785998;87;20017;-84
2023/12/29 00:26:20;;;;;;;;;;;10.00;99.90;;;;;;6786741;87;20036;-86
2023/12/29 00:36:21;;;;;;;;;;;9.90;99.90;;;;;;6749187;88;20022;-85
2023/12/29 00:56:27;;;;;;;;;;;10.00;99.90;;;;;;6706872;88;21204;-86
2023/12/29 01:06:48;;;;;;;;;;;10.10;99.90;;;;;;6776818;78;20064;-85
2023/12/29 01:36:55;;;;;;;;;;;10.30;99.90;;;;;;6764399;87;20410;-86
2023/12/29 02:29:25;;;;;;;;;;;10.80;99.90;;;;;;6753296;88;20111;-85
2023/12/29 03:09:37;;;;;;;;;;;11.00;99.90;;;;;;6770388;87;20845;-85
2023/12/29 03:19:37;;;;;;;;;;;10.90;99.90;;;;;;6752324;88;20015;-85
2023/12/29 03:29:38;;;;;;;;;;;11.00;99.90;;;;;;6732507;88;20118;-86
2023/12/29 03:39:38;;;;;;;;;;;10.90;99.90;;;;;;6751350;88;20038;-87
2023/12/29 03:59:42;;;;;;;;;;;11.00;99.90;;;;;;6770182;88;20175;-86
2023/12/29 04:20:44;;;;;;;;;;;11.10;99.90;;;;;;6803195;87;20094;-85
2023/12/29 05:11:56;;;;;;;;;;;10.60;99.90;;;;;;6803332;87;20129;-83
2023/12/29 05:21:57;;;;;;;;;;;10.60;99.90;;;;;;6801814;87;20063;-84
2023/12/29 05:31:57;;;;;;;;;;;10.60;99.90;;;;;;6804407;87;20049;-83
2023/12/29 05:41:57;;;;;;;;;;;10.60;99.90;;;;;;6804444;87;20612;-84
2023/12/29 05:51:58;;;;;;;;;;;10.60;99.90;;;;;;6804042;87;20076;-85
2023/12/29 06:01:58;;;;;;;;;;;10.60;99.90;;;;;;6803799;87;20924;-83
2023/12/29 06:11:59;;;;;;;;;;;10.70;99.90;;;;;;6799936;87;20021;-82
2023/12/29 06:22:00;;;;;;;;;;;10.60;99.90;;;;;;6803711;87;20066;-82
2023/12/29 06:32:00;;;;;;;;;;;10.60;99.90;;;;;;6803818;87;20518;-82
2023/12/29 06:42:03;;;;;;;;;;;10.80;99.90;;;;;;6803635;87;20050;-83
2023/12/29 06:52:03;;;;;;;;;;;10.60;99.90;;;;;;6803910;87;20020;-84
2023/12/29 07:02:04;;;;;;;;;;;10.60;99.90;;;;;;6803347;87;20029;-83
2023/12/29 07:12:05;;;;;;;;;;;10.60;99.90;;;;;;6802988;87;20084;-84
2023/12/29 07:22:34;;;;;;;;;;;10.50;99.90;;;;;;6802925;87;20052;-84
2023/12/29 07:32:35;;;;;;;;;;;10.60;99.90;;;;;;6782711;88;20097;-83
2023/12/29 07:42:35;;;;;;;;;;;10.50;99.90;;;;;;6784249;87;20084;-83
2023/12/29 07:52:36;;;;;;;;;;;10.50;99.90;;;;;;6784243;87;20084;-83
2023/12/29 08:02:36;;;;;;;;;;;10.50;99.90;;;;;;6785095;87;20053;-85
2023/12/29 08:12:37;;;;;;;;;;;10.60;99.90;;;;;;6785251;87;20017;-84
2023/12/29 08:22:37;;;;;;;;;;;10.70;99.90;;;;;;6784940;87;20017;-84
2023/12/29 08:32:38;;;;;;;;;;;10.90;99.90;;;;;;6748257;88;20169;-84
2023/12/29 08:42:38;;;;;;;;;;;11.00;99.90;;;;;;6776816;88;20049;-82
2023/12/29 08:52:39;;;;;;;;;;;11.10;99.90;;;;;;6781677;87;20080;-82
2023/12/29 09:02:40;;;;;;;;;;;11.20;99.90;;;;;;6781690;87;20064;-82
2023/12/29 10:35:05;;;;;;;;;;;12.00;99.90;;;;;;6796242;87;20081;-86
2023/12/29 10:45:26;;;;;;;;;;;12.00;99.90;;;;;;6789154;76;20119;-85
2023/12/29 21:28:29;;;;;;;;;;;8.50;99.90;;;;;;6756730;87;20112;-83
2023/12/29 21:38:30;;;;;;;;;;;8.40;99.90;;;;;;6750554;88;20031;-84
2023/12/29 21:59:32;;;;;;;;;;;8.80;99.90;;;;;;6680030;87;20053;-86
2023/12/29 22:29:40;;;;;;;;;;;9.00;99.90;;;;;;6713443;87;20071;-85
2023/12/29 23:20:54;;;;;;;;;;;8.00;99.90;;;;;;6760988;77;20039;-82
2023/12/29 23:31:16;;;;;;;;;;;8.20;99.90;;;;;;7006540;77;21299;-84
2023/12/29 23:41:18;;;;;;;;;;;8.30;99.90;;;;;;6786229;87;20890;-84
2023/12/29 23:51:20;;;;;;;;;;;8.10;99.90;;;;;;6714841;88;20039;-85
